Observation data for Silverton on 04/21/2019      Previous  Date  Next       Current Mesonet Observations  Soil Data  Daily Summary Page  Observations in Plain Language
KSVS 210500Z 19021G28KT 21/05 A2983 RMK A01 T02100046  RH  035%=      5-min Rain = 0
KSVS 210505Z 19021G26KT 21/05 A2983 RMK A01 T02070046  RH  036%=      5-min Rain = 0
KSVS 210510Z 20020G29KT 20/05 A2983 RMK A01 T02040047  RH  036%=      5-min Rain = 0
KSVS 210515Z 20020G26KT 20/05 A2983 RMK A01 T02030046  RH  037%=      5-min Rain = 0
KSVS 210520Z 20020G27KT 20/05 A2983 RMK A01 T02010046  RH  037%=      5-min Rain = 0
KSVS 210525Z 20020G26KT 20/05 A2983 RMK A01 T02000047  RH  037%=      5-min Rain = 0
KSVS 210530Z 20019G27KT 20/05 A2983 RMK A01 T01970047  RH  038%=      5-min Rain = 0
KSVS 210535Z 20019G24KT 20/05 A2983 RMK A01 T01970047  RH  038%=      5-min Rain = 0
KSVS 210540Z 20019KT 20/05 A2983 RMK A01 T01950048  RH  039%=      5-min Rain = 0
KSVS 210545Z 20019G28KT 20/05 A2983 RMK A01 T01950048  RH  039%=      5-min Rain = 0
KSVS 210550Z 20020G27KT 20/05 A2983 RMK A01 T01950048  RH  039%=      5-min Rain = 0
KSVS 210555Z 19020G25KT 20/05 A2983 RMK A01 T01950049  RH  039%=      5-min Rain = 0
KSVS 210600Z 20019G26KT 20/05 A2983 RMK A01 T01960049  RH  039%=      5-min Rain = 0
KSVS 210605Z 20020G26KT 20/05 A2983 RMK A01 T01950050  RH  039%=      5-min Rain = 0
KSVS 210610Z 20019G25KT 19/05 A2983 RMK A01 T01930050  RH  040%=      5-min Rain = 0
KSVS 210615Z 20018G24KT 19/05 A2983 RMK A01 T01900051  RH  041%=      5-min Rain = 0
KSVS 210620Z 20019G24KT 19/05 A2983 RMK A01 T01890052  RH  041%=      5-min Rain = 0
KSVS 210625Z 20019G26KT 19/05 A2983 RMK A01 T01890053  RH  042%=      5-min Rain = 0
KSVS 210630Z 20019G26KT 19/05 A2983 RMK A01 T01890054  RH  042%=      5-min Rain = 0
KSVS 210635Z 20019G27KT 19/05 A2982 RMK A01 T01880054  RH  042%=      5-min Rain = 0
KSVS 210640Z 20020G26KT 19/06 A2982 RMK A01 T01880055  RH  043%=      5-min Rain = 0
KSVS 210645Z 19020G25KT 19/06 A2982 RMK A01 T01880056  RH  043%=      5-min Rain = 0
KSVS 210650Z 20016G22KT 18/06 A2982 RMK A01 T01810056  RH  045%=      5-min Rain = 0
KSVS 210655Z 20017G22KT 18/06 A2982 RMK A01 T01780056  RH  046%=      5-min Rain = 0
KSVS 210700Z 20016G21KT 18/06 A2982 RMK A01 T01760057  RH  047%=      5-min Rain = 0
KSVS 210705Z 20017G23KT 18/06 A2982 RMK A01 T01750058  RH  047%=      5-min Rain = 0
KSVS 210710Z 20016G22KT 17/06 A2982 RMK A01 T01740058  RH  048%=      5-min Rain = 0
KSVS 210715Z 20017G23KT 17/06 A2982 RMK A01 T01730059  RH  048%=      5-min Rain = 0
KSVS 210720Z 20017G22KT 17/06 A2981 RMK A01 T01730060  RH  048%=      5-min Rain = 0
KSVS 210725Z 20018G23KT 18/06 A2981 RMK A01 T01750061  RH  048%=      5-min Rain = 0
KSVS 210730Z 20018G23KT 18/06 A2981 RMK A01 T01750062  RH  049%=      5-min Rain = 0
KSVS 210735Z 20018G26KT 18/06 A2981 RMK A01 T01760063  RH  049%=      5-min Rain = 0
KSVS 210740Z 21018G24KT 18/06 A2981 RMK A01 T01760063  RH  049%=      5-min Rain = 0
KSVS 210745Z 21019G25KT 18/06 A2981 RMK A01 T01750064  RH  049%=      5-min Rain = 0
KSVS 210750Z 21019G24KT 18/07 A2982 RMK A01 T01750065  RH  050%=      5-min Rain = 0
KSVS 210755Z 21018G23KT 17/07 A2981 RMK A01 T01740065  RH  050%=      5-min Rain = 0
KSVS 210800Z 21018G23KT 17/07 A2981 RMK A01 T01710066  RH  051%=      5-min Rain = 0
KSVS 210805Z 21019G25KT 17/07 A2981 RMK A01 T01720067  RH  051%=      5-min Rain = 0
KSVS 210810Z 21019G24KT 17/07 A298 RMK A01 T01720067  RH  051%=      5-min Rain = 0
KSVS 210815Z 20018KT 17/07 A298 RMK A01 T01710067  RH  052%=      5-min Rain = 0
KSVS 210820Z 20017G23KT 17/07 A298 RMK A01 T01700068  RH  052%=      5-min Rain = 0
KSVS 210825Z 21017G25KT 17/07 A298 RMK A01 T01690068  RH  053%=      5-min Rain = 0
KSVS 210830Z 20018G24KT 17/07 A298 RMK A01 T01700068  RH  053%=      5-min Rain = 0
KSVS 210835Z 21018G23KT 17/07 A298 RMK A01 T01680068  RH  053%=      5-min Rain = 0
KSVS 210840Z 21019G25KT 17/07 A298 RMK A01 T01680069  RH  053%=      5-min Rain = 0
KSVS 210845Z 21017G27KT 17/07 A298 RMK A01 T01680069  RH  053%=      5-min Rain = 0
KSVS 210850Z 21017G24KT 17/07 A298 RMK A01 T01670069  RH  054%=      5-min Rain = 0
KSVS 210855Z 20017G22KT 17/07 A298 RMK A01 T01660069  RH  054%=      5-min Rain = 0
KSVS 210900Z 20018G23KT 17/07 A2979 RMK A01 T01660069  RH  054%=      5-min Rain = 0
KSVS 210905Z 20019G25KT 17/07 A2979 RMK A01 T01660069  RH  054%=      5-min Rain = 0
KSVS 210910Z 21018G25KT 17/07 A2979 RMK A01 T01660069  RH  054%=      5-min Rain = 0
KSVS 210915Z 21018KT 16/07 A2979 RMK A01 T01640070  RH  055%=      5-min Rain = 0
KSVS 210920Z 21018G23KT 16/07 A2979 RMK A01 T01640070  RH  055%=      5-min Rain = 0
KSVS 210925Z 21016G22KT 16/07 A2979 RMK A01 T01630070  RH  055%=      5-min Rain = 0
KSVS 210930Z 21018G24KT 16/07 A2979 RMK A01 T01630070  RH  055%=      5-min Rain = 0
KSVS 210935Z 21017KT 16/07 A2979 RMK A01 T01610070  RH  056%=      5-min Rain = 0
KSVS 210940Z 21017KT 16/07 A2979 RMK A01 T01600070  RH  056%=      5-min Rain = 0
KSVS 210945Z 21017G23KT 16/07 A298 RMK A01 T01580070  RH  057%=      5-min Rain = 0
KSVS 210950Z 21016KT 16/07 A298 RMK A01 T01580070  RH  057%=      5-min Rain = 0
KSVS 210955Z 21016G21KT 16/07 A298 RMK A01 T01550070  RH  058%=      5-min Rain = 0
KSVS 211000Z 22016KT 16/07 A298 RMK A01 T01550070  RH  059%=      5-min Rain = 0
KSVS 211005Z 21016KT 15/07 A298 RMK A01 T01530070  RH  059%=      5-min Rain = 0
KSVS 211010Z 21015KT 15/07 A298 RMK A01 T01510070  RH  060%=      5-min Rain = 0
KSVS 211015Z 21015KT 15/07 A298 RMK A01 T01490070  RH  061%=      5-min Rain = 0
KSVS 211020Z 21015KT 15/07 A2979 RMK A01 T01490070  RH  061%=      5-min Rain = 0
KSVS 211025Z 21015KT 15/07 A298 RMK A01 T01490070  RH  061%=      5-min Rain = 0
KSVS 211030Z 21015G20KT 15/07 A2979 RMK A01 T01480070  RH  061%=      5-min Rain = 0
KSVS 211035Z 21015G20KT 15/07 A298 RMK A01 T01460070  RH  062%=      5-min Rain = 0
KSVS 211040Z 22016KT 15/07 A298 RMK A01 T01470071  RH  062%=      5-min Rain = 0
KSVS 211045Z 21015KT 15/07 A298 RMK A01 T01460070  RH  062%=      5-min Rain = 0
KSVS 211050Z 22016KT 15/07 A298 RMK A01 T01450070  RH  062%=      5-min Rain = 0
KSVS 211055Z 22015KT 14/07 A298 RMK A01 T01440070  RH  063%=      5-min Rain = 0
KSVS 211100Z 22015KT 14/07 A298 RMK A01 T01430070  RH  063%=      5-min Rain = 0
KSVS 211105Z 22015KT 14/07 A2981 RMK A01 T01430070  RH  063%=      5-min Rain = 0
KSVS 211110Z 22015G20KT 14/07 A2981 RMK A01 T01430070  RH  063%=      5-min Rain = 0
KSVS 211115Z 22015KT 14/07 A2981 RMK A01 T01420070  RH  063%=      5-min Rain = 0
KSVS 211120Z 23014KT 14/07 A2981 RMK A01 T01410070  RH  064%=      5-min Rain = 0
KSVS 211125Z 24014KT 14/07 A2982 RMK A01 T01410069  RH  064%=      5-min Rain = 0
KSVS 211130Z 23013KT 14/07 A2982 RMK A01 T01390069  RH  064%=      5-min Rain = 0
KSVS 211135Z 24012KT 14/07 A2982 RMK A01 T01360069  RH  066%=      5-min Rain = 0
KSVS 211140Z 24011KT 13/07 A2982 RMK A01 T01330069  RH  067%=      5-min Rain = 0
KSVS 211145Z 23012KT 13/07 A2982 RMK A01 T01310069  RH  068%=      5-min Rain = 0
KSVS 211150Z 24012KT 13/07 A2982 RMK A01 T01290069  RH  069%=      5-min Rain = 0
KSVS 211155Z 23012KT 13/07 A2982 RMK A01 T01270069  RH  069%=      5-min Rain = 0
KSVS 211200Z 23012KT 13/07 A2982 RMK A01 T01260069  RH  070%=      5-min Rain = 0
KSVS 211205Z 23012KT 13/07 A2982 RMK A01 T01250069  RH  070%=      5-min Rain = 0
KSVS 211210Z 23012KT 13/07 A2982 RMK A01 T01260069  RH  070%=      5-min Rain = 0
KSVS 211215Z 24012KT 12/07 A2983 RMK A01 T01240069  RH  071%=      5-min Rain = 0
KSVS 211220Z 24012KT 12/07 A2983 RMK A01 T01230069  RH  071%=      5-min Rain = 0
KSVS 211225Z 24012KT 12/07 A2983 RMK A01 T01240069  RH  071%=      5-min Rain = 0
KSVS 211230Z 24013KT 13/07 A2983 RMK A01 T01260069  RH  070%=      5-min Rain = 0
KSVS 211235Z 24013KT 13/07 A2983 RMK A01 T01270069  RH  070%=      5-min Rain = 0
KSVS 211240Z 23013KT 13/07 A2983 RMK A01 T01300069  RH  068%=      5-min Rain = 0
KSVS 211245Z 23013G18KT 13/07 A2983 RMK A01 T01330069  RH  067%=      5-min Rain = 0
KSVS 211250Z 23014KT 14/07 A2983 RMK A01 T01370069  RH  065%=      5-min Rain = 0
KSVS 211255Z 23015KT 14/07 A2983 RMK A01 T01400070  RH  064%=      5-min Rain = 0
KSVS 211300Z 23015KT 14/07 A2984 RMK A01 T01430070  RH  063%=      5-min Rain = 0
KSVS 211305Z 23015KT 15/07 A2983 RMK A01 T01470071  RH  062%=      5-min Rain = 0
KSVS 211310Z 23015KT 15/07 A2983 RMK A01 T01500071  RH  061%=      5-min Rain = 0
KSVS 211315Z 23015G20KT 15/07 A2984 RMK A01 T01540072  RH  060%=      5-min Rain = 0
KSVS 211320Z 23015KT 16/07 A2984 RMK A01 T01560072  RH  059%=      5-min Rain = 0
KSVS 211325Z 23015G20KT 16/07 A2984 RMK A01 T01590072  RH  058%=      5-min Rain = 0
KSVS 211330Z 23015G21KT 16/07 A2984 RMK A01 T01620073  RH  057%=      5-min Rain = 0
KSVS 211335Z 23015KT 17/07 A2984 RMK A01 T01650073  RH  056%=      5-min Rain = 0
KSVS 211340Z 23017G22KT 17/07 A2984 RMK A01 T01670072  RH  055%=      5-min Rain = 0
KSVS 211345Z 23015G20KT 17/07 A2984 RMK A01 T01700073  RH  054%=      5-min Rain = 0
KSVS 211350Z 23016G22KT 17/07 A2984 RMK A01 T01720072  RH  053%=      5-min Rain = 0
KSVS 211355Z 23015G21KT 18/07 A2984 RMK A01 T01760073  RH  052%=      5-min Rain = 0
KSVS 211400Z 23015G22KT 18/07 A2984 RMK A01 T01790073  RH  051%=      5-min Rain = 0
KSVS 211405Z 23018KT 18/07 A2983 RMK A01 T01790070  RH  050%=      5-min Rain = 0
KSVS 211410Z 24015G20KT 18/07 A2983 RMK A01 T01830072  RH  050%=      5-min Rain = 0
KSVS 211415Z 23015KT 19/07 A2983 RMK A01 T01850072  RH  049%=      5-min Rain = 0
KSVS 211420Z 24015KT 19/07 A2983 RMK A01 T01880071  RH  048%=      5-min Rain = 0
KSVS 211425Z 24015KT 19/07 A2983 RMK A01 T01910069  RH  046%=      5-min Rain = 0
KSVS 211430Z 24016KT 19/07 A2983 RMK A01 T01940068  RH  045%=      5-min Rain = 0
KSVS 211435Z 24016KT 20/07 A2983 RMK A01 T01960067  RH  044%=      5-min Rain = 0
KSVS 211440Z 25015G20KT 20/07 A2983 RMK A01 T01980068  RH  044%=      5-min Rain = 0
KSVS 211445Z 25016KT 20/07 A2983 RMK A01 T02000065  RH  043%=      5-min Rain = 0
KSVS 211450Z 24015KT 20/07 A2983 RMK A01 T02040067  RH  042%=      5-min Rain = 0
KSVS 211455Z 24016KT 20/06 A2983 RMK A01 T02040064  RH  041%=      5-min Rain = 0
KSVS 211500Z 24015KT 21/07 A2984 RMK A01 T02080067  RH  041%=      5-min Rain = 0
KSVS 211505Z 24015KT 21/07 A2984 RMK A01 T02120066  RH  040%=      5-min Rain = 0
KSVS 211510Z 24014KT 22/07 A2984 RMK A01 T02170068  RH  039%=      5-min Rain = 0
KSVS 211515Z 24015KT 22/07 A2984 RMK A01 T02170067  RH  039%=      5-min Rain = 0
KSVS 211520Z 24015KT 22/07 A2983 RMK A01 T02200065  RH  037%=      5-min Rain = 0
KSVS 211525Z 24014KT 23/07 A2984 RMK A01 T02280067  RH  036%=      5-min Rain = 0
KSVS 211530Z 24013KT 23/07 A2984 RMK A01 T02340069  RH  035%=      5-min Rain = 0
KSVS 211535Z 25014KT 23/07 A2984 RMK A01 T02340065  RH  035%=      5-min Rain = 0
KSVS 211540Z 25014KT 24/07 A2984 RMK A01 T02400066  RH  034%=      5-min Rain = 0
KSVS 211545Z 24015KT 24/06 A2984 RMK A01 T02410064  RH  033%=      5-min Rain = 0
KSVS 211550Z 24014KT 24/06 A2984 RMK A01 T02440063  RH  032%=      5-min Rain = 0
KSVS 211555Z 24014KT 25/06 A2984 RMK A01 T02480064  RH  031%=      5-min Rain = 0
KSVS 211600Z 24014KT 25/06 A2984 RMK A01 T02500062  RH  031%=      5-min Rain = 0
KSVS 211605Z 24013KT 26/06 A2984 RMK A01 T02550064  RH  030%=      5-min Rain = 0
KSVS 211610Z 24014KT 26/06 A2984 RMK A01 T02580060  RH  029%=      5-min Rain = 0
KSVS 211615Z 24013KT 27/07 A2984 RMK A01 T02660065  RH  028%=      5-min Rain = 0
KSVS 211620Z 24014KT 27/06 A2984 RMK A01 T02670059  RH  027%=      5-min Rain = 0
KSVS 211625Z 25014KT 27/06 A2984 RMK A01 T02730056  RH  026%=      5-min Rain = 0
KSVS 211630Z 25014KT 28/05 A2984 RMK A01 T02780053  RH  024%=      5-min Rain = 0
KSVS 211635Z 26016KT 28/04 A2985 RMK A01 T02790037  RH  022%=      5-min Rain = 0
KSVS 211640Z 26017G22KT 28/03 A2984 RMK A01 T02810030  RH  020%=      5-min Rain = 0
KSVS 211645Z 26016G21KT 28/03 A2984 RMK A01 T02830026  RH  019%=      5-min Rain = 0
KSVS 211650Z 26017G22KT 28/02 A2984 RMK A01 T02840015  RH  018%=      5-min Rain = 0
KSVS 211655Z 26015KT 29/00 A2984 RMK A01 T02870004  RH  016%=      5-min Rain = 0
KSVS 211700Z 27015G20KT 29/00 A2984 RMK A01 T02910004  RH  016%=      5-min Rain = 0
KSVS 211705Z 26015KT 29/00 A2985 RMK A01 T02910001  RH  015%=      5-min Rain = 0
KSVS 211710Z 26016KT 29/00 A2984 RMK A01 T02940000  RH  015%=      5-min Rain = 0
KSVS 211715Z 26015G20KT 30/00 A2984 RMK A01 T029600-0  RH  015%=      5-min Rain = 0
KSVS 211720Z 26016G21KT 30/M02 A2984 RMK A01 T02951017  RH  013%=      5-min Rain = 0
KSVS 211725Z 26016KT 30/M02 A2984 RMK A01 T02971019  RH  013%=      5-min Rain = 0
KSVS 211730Z 27014G23KT 30/M02 A2984 RMK A01 T02991017  RH  013%=      5-min Rain = 0
KSVS 211735Z 28015G20KT 30/M02 A2984 RMK A01 T02991015  RH  013%=      5-min Rain = 0
KSVS 211740Z 26017G22KT 30/M03 A2984 RMK A01 T03001027  RH  012%=      5-min Rain = 0
KSVS 211745Z 28015G22KT 30/M03 A2984 RMK A01 T03011025  RH  012%=      5-min Rain = 0
KSVS 211750Z 27014G19KT 30/M03 A2984 RMK A01 T02981030  RH  012%=      5-min Rain = 0
KSVS 211755Z 27015KT 30/M03 A2984 RMK A01 T03011027  RH  012%=      5-min Rain = 0
KSVS 211800Z 27018G23KT 30/M03 A2984 RMK A01 T03021028  RH  012%=      5-min Rain = 0
KSVS 211805Z 26012G17KT 30/M03 A2984 RMK A01 T02991029  RH  012%=      5-min Rain = 0
KSVS 211810Z 26014G21KT 30/M03 A2984 RMK A01 T03021028  RH  012%=      5-min Rain = 0
KSVS 211815Z 27015G24KT 30/M03 A2983 RMK A01 T03001027  RH  012%=      5-min Rain = 0
KSVS 211820Z 26015G21KT 30/M02 A2983 RMK A01 T03031023  RH  012%=      5-min Rain = 0
KSVS 211825Z 25017G23KT 30/M03 A2983 RMK A01 T03021030  RH  012%=      5-min Rain = 0
KSVS 211830Z 26014G24KT 30/M03 A2983 RMK A01 T03031032  RH  011%=      5-min Rain = 0
KSVS 211835Z 27016G26KT 30/M03 A2983 RMK A01 T03021027  RH  012%=      5-min Rain = 0
KSVS 211840Z 26016G21KT 30/M03 A2983 RMK A01 T03021032  RH  011%=      5-min Rain = 0
KSVS 211845Z 25017G23KT 30/M03 A2983 RMK A01 T03031033  RH  011%=      5-min Rain = 0
KSVS 211850Z 24016G22KT 31/M03 A2983 RMK A01 T03051032  RH  011%=      5-min Rain = 0
KSVS 211855Z 25016G24KT 31/M03 A2983 RMK A01 T03051033  RH  011%=      5-min Rain = 0
KSVS 211900Z 26016G22KT 30/M03 A2983 RMK A01 T03041033  RH  011%=      5-min Rain = 0
KSVS 211905Z 24016G22KT 31/M04 A2983 RMK A01 T03051036  RH  011%=      5-min Rain = 0
KSVS 211910Z 25011G16KT 30/M04 A2983 RMK A01 T03021035  RH  011%=      5-min Rain = 0
KSVS 211915Z 25015G22KT 30/M03 A2983 RMK A01 T03021033  RH  011%=      5-min Rain = 0
KSVS 211920Z 25013G18KT 31/M03 A2983 RMK A01 T03051032  RH  011%=      5-min Rain = 0
KSVS 211925Z 23014G23KT 31/M04 A2983 RMK A01 T03051035  RH  011%=      5-min Rain = 0
KSVS 211930Z 23016G25KT 31/M03 A2983 RMK A01 T03061031  RH  011%=      5-min Rain = 0
KSVS 211935Z 24014G19KT 31/M03 A2983 RMK A01 T03081031  RH  011%=      5-min Rain = 0
KSVS 211940Z 24014G19KT 30/M03 A2983 RMK A01 T03041034  RH  011%=      5-min Rain = 0
KSVS 211945Z 23012KT 31/M03 A2983 RMK A01 T03071030  RH  011%=      5-min Rain = 0
KSVS 211950Z 22017G27KT 31/M04 A2983 RMK A01 T03081037  RH  011%=      5-min Rain = 0
KSVS 211955Z 23015G21KT 31/M03 A2983 RMK A01 T03101032  RH  011%=      5-min Rain = 0
KSVS 212000Z 23014G19KT 31/M03 A2983 RMK A01 T03111026  RH  011%=      5-min Rain = 0
KSVS 212005Z 25019G25KT 31/M04 A2983 RMK A01 T03071035  RH  011%=      5-min Rain = 0
KSVS 212010Z 25015KT 30/M04 A2983 RMK A01 T03041035  RH  011%=      5-min Rain = 0
KSVS 212015Z 23017G26KT 31/M03 A2982 RMK A01 T03101031  RH  011%=      5-min Rain = 0
KSVS 212020Z 23017G25KT 31/M04 A2983 RMK A01 T03081037  RH  011%=      5-min Rain = 0
KSVS 212025Z 23020G27KT 31/M03 A2983 RMK A01 T03111033  RH  011%=      5-min Rain = 0
KSVS 212030Z 23016G21KT 31/M03 A2983 RMK A01 T03051033  RH  011%=      5-min Rain = 0
KSVS 212035Z 24015G21KT 31/M03 A2982 RMK A01 T03091028  RH  011%=      5-min Rain = 0
KSVS 212040Z 23020G25KT 31/M03 A2982 RMK A01 T03081032  RH  011%=      5-min Rain = 0
KSVS 212045Z 24016G21KT 31/M03 A2982 RMK A01 T03061033  RH  011%=      5-min Rain = 0
KSVS 212050Z 23021G26KT 31/M03 A2982 RMK A01 T03131033  RH  011%=      5-min Rain = 0
KSVS 212055Z 22016G25KT 31/M04 A2982 RMK A01 T03091036  RH  011%=      5-min Rain = 0
KSVS 212100Z 22018G23KT 31/M04 A2982 RMK A01 T03101037  RH  010%=      5-min Rain = 0
KSVS 212105Z 23020G26KT 31/M03 A2982 RMK A01 T03101032  RH  011%=      5-min Rain = 0
KSVS 212110Z 22015G24KT 31/M03 A2981 RMK A01 T03081030  RH  011%=      5-min Rain = 0
KSVS 212115Z 22016G21KT 31/M03 A2981 RMK A01 T03091030  RH  011%=      5-min Rain = 0
KSVS 212120Z 23019KT 31/M04 A2981 RMK A01 T03111037  RH  010%=      5-min Rain = 0
KSVS 212125Z 23018G31KT 31/M04 A2981 RMK A01 T03091037  RH  010%=      5-min Rain = 0
KSVS 212130Z 23019G25KT 31/M04 A2981 RMK A01 T03091038  RH  010%=      5-min Rain = 0
KSVS 212135Z 24015KT 31/M04 A2981 RMK A01 T03081035  RH  011%=      5-min Rain = 0
KSVS 212140Z 22016KT 31/M04 A298 RMK A01 T03101036  RH  011%=      5-min Rain = 0
KSVS 212145Z 22015G20KT 31/M04 A298 RMK A01 T03091037  RH  010%=      5-min Rain = 0
KSVS 212150Z 24020G25KT 31/M04 A298 RMK A01 T03091036  RH  011%=      5-min Rain = 0
KSVS 212155Z 24016G22KT 31/M03 A298 RMK A01 T03111033  RH  011%=      5-min Rain = 0
KSVS 212200Z 24018G25KT 31/M04 A298 RMK A01 T03081039  RH  010%=      5-min Rain = 0
KSVS 212205Z 23014G24KT 31/M04 A298 RMK A01 T03121036  RH  010%=      5-min Rain = 0
KSVS 212210Z 24020G26KT 31/M05 A298 RMK A01 T03101046  RH  010%=      5-min Rain = 0
KSVS 212215Z 23017G22KT 31/M05 A298 RMK A01 T03091045  RH  010%=      5-min Rain = 0
KSVS 212220Z 24015KT 31/M04 A298 RMK A01 T03101041  RH  010%=      5-min Rain = 0
KSVS 212225Z 22016G25KT 31/M04 A2979 RMK A01 T03101041  RH  010%=      5-min Rain = 0
KSVS 212230Z 21017KT 31/M05 A2979 RMK A01 T03061047  RH  010%=      5-min Rain = 0
KSVS 212235Z 22013G19KT 31/M05 A298 RMK A01 T03081045  RH  010%=      5-min Rain = 0
KSVS 212240Z 24016KT 31/M05 A2979 RMK A01 T03091045  RH  010%=      5-min Rain = 0
KSVS 212245Z 23014G21KT 31/M04 A298 RMK A01 T03091042  RH  010%=      5-min Rain = 0
KSVS 212250Z 21015G20KT 31/M04 A298 RMK A01 T03071043  RH  010%=      5-min Rain = 0
KSVS 212255Z 22017G23KT 31/M04 A298 RMK A01 T03061043  RH  010%=      5-min Rain = 0
KSVS 212300Z 23012G17KT 31/M04 A298 RMK A01 T03071043  RH  010%=      5-min Rain = 0
KSVS 212305Z 23014G20KT 31/M04 A298 RMK A01 T03071039  RH  010%=      5-min Rain = 0
KSVS 212310Z 24013G18KT 31/M04 A298 RMK A01 T03051041  RH  010%=      5-min Rain = 0
KSVS 212315Z 23014KT 31/M05 A298 RMK A01 T03051047  RH  010%=      5-min Rain = 0
KSVS 212320Z 23014KT 30/M05 A298 RMK A01 T03041045  RH  010%=      5-min Rain = 0
KSVS 212325Z 22011G16KT 30/M04 A298 RMK A01 T03041043  RH  010%=      5-min Rain = 0
KSVS 212330Z 21012KT 30/M04 A298 RMK A01 T03031044  RH  010%=      5-min Rain = 0
KSVS 212335Z 23014G20KT 30/M04 A298 RMK A01 T03021043  RH  010%=      5-min Rain = 0
KSVS 212340Z 23012KT 30/M04 A298 RMK A01 T03011043  RH  010%=      5-min Rain = 0
KSVS 212345Z 24013KT 30/M05 A298 RMK A01 T02991049  RH  010%=      5-min Rain = 0
KSVS 212350Z 24012KT 30/M04 A298 RMK A01 T02981042  RH  011%=      5-min Rain = 0
KSVS 212355Z 24013KT 30/M05 A298 RMK A01 T02971045  RH  011%=      5-min Rain = 0
KSVS 220000Z 22014KT 30/M05 A298 RMK A01 T02961048  RH  010%=      5-min Rain = 0
KSVS 220005Z 22011KT 30/M04 A298 RMK A01 T02951044  RH  011%=      5-min Rain = 0
KSVS 220010Z 23010KT 29/M03 A298 RMK A01 T02931032  RH  012%=      5-min Rain = 0
KSVS 220015Z 23013KT 29/M05 A298 RMK A01 T02901045  RH  011%=      5-min Rain = 0
KSVS 220020Z 23012G17KT 29/M04 A298 RMK A01 T02881043  RH  011%=      5-min Rain = 0
KSVS 220025Z 22010KT 29/M05 A298 RMK A01 T02871046  RH  011%=      5-min Rain = 0
KSVS 220030Z 23009KT 28/M04 A298 RMK A01 T02841038  RH  012%=      5-min Rain = 0
KSVS 220035Z 23010KT 28/M04 A298 RMK A01 T02801036  RH  013%=      5-min Rain = 0
KSVS 220040Z 23010KT 28/M04 A2981 RMK A01 T02761035  RH  013%=      5-min Rain = 0
KSVS 220045Z 23009KT 27/M02 A2981 RMK A01 T02671023  RH  015%=      5-min Rain = 0
KSVS 220050Z 22008KT 26/M02 A2981 RMK A01 T02611023  RH  015%=      5-min Rain = 0
KSVS 220055Z 22007KT 25/M02 A2981 RMK A01 T02531018  RH  017%=      5-min Rain = 0
KSVS 220100Z 22006KT 24/M01 A2981 RMK A01 T02431012  RH  019%=      5-min Rain = 0
KSVS 220105Z 23006KT 24/M01 A2981 RMK A01 T02351007  RH  020%=      5-min Rain = 0
KSVS 220110Z 22007KT 23/M01 A2981 RMK A01 T02291007  RH  021%=      5-min Rain = 0
KSVS 220115Z 22007KT 23/M01 A2981 RMK A01 T02281011  RH  021%=      5-min Rain = 0
KSVS 220120Z 21006KT 22/M02 A2981 RMK A01 T02241018  RH  020%=      5-min Rain = 0
KSVS 220125Z 20006KT 23/M02 A2982 RMK A01 T02341022  RH  018%=      5-min Rain = 0
KSVS 220130Z 19008KT 21/M01 A2982 RMK A01 T02081013  RH  023%=      5-min Rain = 0
KSVS 220135Z 19008KT 22/M02 A2982 RMK A01 T02181019  RH  021%=      5-min Rain = 0
KSVS 220140Z 20008KT 24/M03 A2982 RMK A01 T02391031  RH  017%=      5-min Rain = 0
KSVS 220145Z 20009KT 24/M04 A2982 RMK A01 T02431036  RH  016%=      5-min Rain = 0
KSVS 220150Z 20009KT 23/M03 A2983 RMK A01 T02281027  RH  018%=      5-min Rain = 0
KSVS 220155Z 20008KT 21/M02 A2983 RMK A01 T02121023  RH  021%=      5-min Rain = 0
KSVS 220200Z 19007KT 23/M03 A2983 RMK A01 T02261029  RH  018%=      5-min Rain = 0
KSVS 220205Z 18010KT 21/M02 A2983 RMK A01 T02141021  RH  021%=      5-min Rain = 0
KSVS 220210Z 19010KT 21/M02 A2983 RMK A01 T02131023  RH  021%=      5-min Rain = 0
KSVS 220215Z 19007KT 20/M02 A2983 RMK A01 T02041019  RH  022%=      5-min Rain = 0
KSVS 220220Z 19008KT 21/M03 A2983 RMK A01 T02061025  RH  021%=      5-min Rain = 0
KSVS 220225Z 19008KT 22/M03 A2983 RMK A01 T02211031  RH  018%=      5-min Rain = 0
KSVS 220230Z 19009KT 23/M03 A2984 RMK A01 T02251032  RH  018%=      5-min Rain = 0
KSVS 220235Z 20009KT 21/M03 A2984 RMK A01 T02101025  RH  021%=      5-min Rain = 0
KSVS 220240Z 21007KT 17/M01 A2984 RMK A01 T01661011  RH  030%=      5-min Rain = 0
KSVS 220245Z 21008KT 15/M01 A2985 RMK A01 T01541007  RH  034%=      5-min Rain = 0
KSVS 220250Z 20008KT 16/M01 A2985 RMK A01 T01601008  RH  032%=      5-min Rain = 0
KSVS 220255Z 20010KT 16/M01 A2985 RMK A01 T01621008  RH  032%=      5-min Rain = 0
KSVS 220300Z 19011KT 18/M01 A2985 RMK A01 T01771013  RH  028%=      5-min Rain = 0
KSVS 220305Z 19011KT 19/M02 A2985 RMK A01 T01881015  RH  026%=      5-min Rain = 0
KSVS 220310Z 19011KT 20/M02 A2986 RMK A01 T01991017  RH  023%=      5-min Rain = 0
KSVS 220315Z 20010KT 20/M01 A2986 RMK A01 T01971014  RH  024%=      5-min Rain = 0
KSVS 220320Z 20010KT 19/M01 A2986 RMK A01 T01931013  RH  025%=      5-min Rain = 0
KSVS 220325Z 20011KT 19/M01 A2986 RMK A01 T01941013  RH  025%=      5-min Rain = 0
KSVS 220330Z 20010KT 20/M01 A2986 RMK A01 T01991014  RH  024%=      5-min Rain = 0
KSVS 220335Z 20010KT 19/M01 A2987 RMK A01 T01881010  RH  027%=      5-min Rain = 0
KSVS 220340Z 20010KT 18/M01 A2987 RMK A01 T01761006  RH  029%=      5-min Rain = 0
KSVS 220345Z 20010KT 17/M00 A2987 RMK A01 T01681004  RH  031%=      5-min Rain = 0
KSVS 220350Z 21011KT 16/M00 A2987 RMK A01 T01601002  RH  034%=      5-min Rain = 0
KSVS 220355Z 21011KT 16/M00 A2987 RMK A01 T01571003  RH  034%=      5-min Rain = 0
KSVS 220400Z 22011KT 16/M00 A2987 RMK A01 T01601003  RH  033%=      5-min Rain = 0
KSVS 220405Z 22010KT 16/M00 A2987 RMK A01 T01611002  RH  033%=      5-min Rain = 0
KSVS 220410Z 22010KT 15/M00 A2987 RMK A01 T01541001  RH  035%=      5-min Rain = 0
KSVS 220415Z 23009KT 15/M00 A2987 RMK A01 T01511002  RH  036%=      5-min Rain = 0
KSVS 220420Z 23008KT 14/00 A2987 RMK A01 T014400-0  RH  038%=      5-min Rain = 0
KSVS 220425Z 24008KT 14/00 A2987 RMK A01 T01370001  RH  040%=      5-min Rain = 0
KSVS 220430Z 23008KT 13/00 A2987 RMK A01 T01330001  RH  041%=      5-min Rain = 0
KSVS 220435Z 23009KT 13/00 A2987 RMK A01 T01310002  RH  042%=      5-min Rain = 0
KSVS 220440Z 23009KT 13/00 A2987 RMK A01 T01320004  RH  042%=      5-min Rain = 0
KSVS 220445Z 22008KT 13/00 A2987 RMK A01 T01310004  RH  042%=      5-min Rain = 0
KSVS 220450Z 22008KT 13/00 A2987 RMK A01 T01310004  RH  042%=      5-min Rain = 0
KSVS 220455Z 21008KT 13/01 A2987 RMK A01 T01300005  RH  043%=      5-min Rain = 0

Page generated in 0.0153 seconds.